createdAt,value
2022-11-28T00:01:41.314Z,49.20
2022-11-28T00:04:08.986Z,43.70
2022-11-28T00:06:39.190Z,46.90
2022-11-28T00:09:06.703Z,45.70
2022-11-28T00:11:33.418Z,51.20
2022-11-28T00:14:00.373Z,52.90
2022-11-28T00:16:27.386Z,50.00
2022-11-28T00:18:55.098Z,49.30
2022-11-28T00:21:23.159Z,50.90
2022-11-28T00:23:50.516Z,55.20
2022-11-28T00:26:20.632Z,45.90
2022-11-28T00:28:47.774Z,49.60
2022-11-28T00:31:16.349Z,39.80
2022-11-28T00:33:43.112Z,44.90
2022-11-28T00:36:10.975Z,42.00
2022-11-28T00:38:38.234Z,40.00
2022-11-28T00:41:08.815Z,36.70
2022-11-28T00:43:36.137Z,37.00
2022-11-28T00:46:04.339Z,43.10
2022-11-28T00:48:33.154Z,42.40
2022-11-28T00:51:16.812Z,36.90
2022-11-28T00:53:45.619Z,33.10
2022-11-28T00:56:15.570Z,36.10
2022-11-28T00:58:42.726Z,37.30
2022-11-28T01:01:10.988Z,34.30
2022-11-28T01:03:38.223Z,34.60
2022-11-28T01:06:06.499Z,30.80
2022-11-28T01:08:33.437Z,37.20
2022-11-28T01:11:00.417Z,38.00
2022-11-28T01:13:27.729Z,34.80
2022-11-28T01:15:54.637Z,30.00
2022-11-28T01:18:21.671Z,30.90
2022-11-28T01:20:48.359Z,32.50
2022-11-28T01:23:16.824Z,30.70
2022-11-28T01:25:43.562Z,34.30
2022-11-28T01:28:10.339Z,29.60
2022-11-28T01:30:37.048Z,36.90
2022-11-28T01:33:03.853Z,36.50
2022-11-28T01:35:30.606Z,38.50
2022-11-28T01:37:57.281Z,36.20
2022-11-28T01:40:23.956Z,31.90
2022-11-28T01:42:50.671Z,34.30
2022-11-28T01:45:22.562Z,33.80
2022-11-28T01:47:52.109Z,38.70
2022-11-28T01:50:19.199Z,41.40
2022-11-28T01:52:50.327Z,37.70
2022-11-28T01:55:21.205Z,32.70
2022-11-28T01:57:48.121Z,26.10
2022-11-28T02:00:18.917Z,29.50
2022-11-28T02:02:59.122Z,34.00
2022-11-28T02:05:26.131Z,30.60
2022-11-28T02:07:53.081Z,30.80
2022-11-28T02:10:28.878Z,37.40
2022-11-28T02:13:25.609Z,36.00
2022-11-28T02:16:08.886Z,30.70
2022-11-28T02:18:47.431Z,34.60
2022-11-28T02:21:29.206Z,33.20
2022-11-28T02:24:07.281Z,34.50
2022-11-28T02:26:49.414Z,37.60
2022-11-28T02:29:42.328Z,36.10
2022-11-28T02:32:10.875Z,34.00
2022-11-28T02:34:46.865Z,29.70
2022-11-28T02:37:26.270Z,31.30
2022-11-28T02:40:06.636Z,28.10
2022-11-28T02:42:42.355Z,40.10
2022-11-28T02:45:18.596Z,36.30
2022-11-28T02:47:50.924Z,33.00
2022-11-28T02:50:28.469Z,33.40
2022-11-28T02:53:05.399Z,40.10
2022-11-28T02:55:32.618Z,38.70
2022-11-28T02:57:59.439Z,37.70
2022-11-28T03:00:36.330Z,33.80
2022-11-28T03:03:19.943Z,35.80
2022-11-28T03:05:50.906Z,32.20
2022-11-28T03:08:17.562Z,33.80
2022-11-28T03:10:55.406Z,33.10
2022-11-28T03:13:47.715Z,33.10
2022-11-28T03:16:27.311Z,29.70
2022-11-28T03:19:01.994Z,20.20
2022-11-28T03:21:51.090Z,28.50
2022-11-28T03:24:36.337Z,27.70
2022-11-28T03:27:04.116Z,28.30
2022-11-28T03:29:39.942Z,32.90
2022-11-28T03:32:19.026Z,30.60
2022-11-28T03:34:50.685Z,33.30
2022-11-28T03:37:23.071Z,29.50
2022-11-28T03:39:55.396Z,25.50
2022-11-28T03:42:24.983Z,19.70
2022-11-28T03:44:56.108Z,23.80
2022-11-28T03:47:28.319Z,21.70
2022-11-28T03:50:01.291Z,20.50
2022-11-28T03:52:33.149Z,24.60
2022-11-28T03:55:05.542Z,30.30
2022-11-28T03:57:35.516Z,26.00
2022-11-28T04:00:08.204Z,23.70
2022-11-28T04:02:58.761Z,19.40
2022-11-28T04:05:45.448Z,18.40
2022-11-28T04:08:13.539Z,19.80
2022-11-28T04:10:43.446Z,16.60
2022-11-28T04:13:29.390Z,23.50
2022-11-28T04:15:56.157Z,20.70
2022-11-28T04:18:53.701Z,23.00
2022-11-28T04:21:24.920Z,23.40
2022-11-28T04:23:55.192Z,21.50
2022-11-28T04:26:30.273Z,17.20
2022-11-28T04:28:59.621Z,22.20
2022-11-28T04:31:26.903Z,19.70
2022-11-28T04:33:59.782Z,21.40
2022-11-28T04:36:27.524Z,20.00
2022-11-28T04:38:57.521Z,20.30
2022-11-28T04:41:34.928Z,23.10
2022-11-28T04:44:12.842Z,25.80
2022-11-28T04:46:44.598Z,21.90
2022-11-28T04:49:12.046Z,18.50
2022-11-28T04:51:44.712Z,23.50
2022-11-28T04:54:20.647Z,24.00
2022-11-28T04:56:55.572Z,21.70
2022-11-28T04:59:26.394Z,28.20
2022-11-28T05:01:54.224Z,21.80
2022-11-28T05:04:21.062Z,18.50
2022-11-28T05:06:48.022Z,17.90
2022-11-28T05:09:35.719Z,17.30
2022-11-28T05:12:03.480Z,16.70
2022-11-28T05:14:30.275Z,14.80
2022-11-28T05:16:57.107Z,13.50
2022-11-28T05:19:24.149Z,9.70
2022-11-28T05:21:53.285Z,16.30
2022-11-28T05:24:22.385Z,16.60
2022-11-28T05:26:49.545Z,17.10
2022-11-28T05:29:17.167Z,16.10
2022-11-28T05:31:44.237Z,15.00
2022-11-28T05:34:11.031Z,21.70
2022-11-28T05:36:37.913Z,17.10
2022-11-28T05:39:04.742Z,15.10
2022-11-28T05:41:32.501Z,18.10
2022-11-28T05:44:00.624Z,20.20
2022-11-28T05:46:28.544Z,18.10
2022-11-28T05:48:55.851Z,19.40
2022-11-28T05:51:22.664Z,15.90
2022-11-28T05:53:49.374Z,15.00
2022-11-28T05:56:18.491Z,18.50
2022-11-28T05:58:46.389Z,20.70
2022-11-28T06:01:15.685Z,17.80
2022-11-28T06:03:43.570Z,24.90
2022-11-28T06:06:14.007Z,21.30
2022-11-28T06:08:41.279Z,24.30
2022-11-28T06:11:09.114Z,20.80
2022-11-28T06:13:36.348Z,22.80
2022-11-28T06:16:06.737Z,22.00
2022-11-28T06:18:33.435Z,26.50
2022-11-28T06:21:05.462Z,23.10
2022-11-28T06:23:32.773Z,21.40
2022-11-28T06:26:05.839Z,23.20
2022-11-28T06:28:33.620Z,19.50
2022-11-28T06:31:00.433Z,27.50
2022-11-28T06:33:27.581Z,27.00
2022-11-28T06:36:10.688Z,27.30
2022-11-28T06:38:37.458Z,28.70
2022-11-28T06:41:06.847Z,22.60
2022-11-28T06:43:34.071Z,17.30
2022-11-28T06:46:01.152Z,17.00
2022-11-28T06:48:28.723Z,18.00
2022-11-28T06:51:03.902Z,16.50
2022-11-28T06:53:31.695Z,16.60
2022-11-28T06:56:03.781Z,17.20
2022-11-28T06:58:30.587Z,17.50
2022-11-28T07:00:57.354Z,20.90
2022-11-28T07:03:24.106Z,19.00
2022-11-28T07:05:50.950Z,33.60
2022-11-28T07:08:17.753Z,23.90
2022-11-28T07:10:44.523Z,20.40
2022-11-28T07:13:11.327Z,20.30
2022-11-28T07:15:38.004Z,29.90
2022-11-28T07:18:04.946Z,20.60
2022-11-28T07:20:31.775Z,20.10
2022-11-28T07:22:58.473Z,26.50
2022-11-28T07:25:26.053Z,21.40
2022-11-28T07:27:52.797Z,24.00
2022-11-28T07:30:20.262Z,23.20
2022-11-28T07:32:47.045Z,23.40
2022-11-28T07:35:13.874Z,30.30
2022-11-28T07:37:40.806Z,35.00
2022-11-28T07:40:08.640Z,33.40
2022-11-28T07:42:35.489Z,33.30
2022-11-28T07:45:05.019Z,34.20
2022-11-28T07:47:31.836Z,35.90
2022-11-28T07:49:58.605Z,31.20
2022-11-28T07:52:25.333Z,38.20
2022-11-28T07:54:52.067Z,36.20
2022-11-28T07:57:18.827Z,34.80
2022-11-28T07:59:45.767Z,38.10
2022-11-28T08:02:13.347Z,53.90
2022-11-28T08:04:45.905Z,40.30
2022-11-28T08:07:15.659Z,37.40
2022-11-28T08:09:42.669Z,30.40
2022-11-28T08:12:09.669Z,32.10
2022-11-28T08:14:36.449Z,32.10
2022-11-28T08:17:03.332Z,30.10
2022-11-28T08:19:33.734Z,30.50
2022-11-28T08:22:02.759Z,26.80
2022-11-28T08:24:29.530Z,26.10
2022-11-28T08:26:56.253Z,31.30
2022-11-28T08:29:23.051Z,30.10
2022-11-28T08:31:49.758Z,33.90
2022-11-28T08:34:16.991Z,26.60
2022-11-28T08:36:43.986Z,29.60
2022-11-28T08:39:27.233Z,28.80
2022-11-28T08:41:58.091Z,27.10
2022-11-28T08:44:26.308Z,29.10
2022-11-28T08:46:53.634Z,28.40
2022-11-28T08:49:20.518Z,25.90
2022-11-28T08:51:47.323Z,28.50
2022-11-28T08:54:14.040Z,30.20
2022-11-28T08:56:40.881Z,29.10
2022-11-28T08:59:07.613Z,26.40
2022-11-28T09:01:34.665Z,29.20
2022-11-28T09:04:01.642Z,25.20
2022-11-28T09:06:28.748Z,27.80
2022-11-28T09:08:55.732Z,26.20
2022-11-28T09:11:23.642Z,23.00
2022-11-28T09:13:50.347Z,23.70
2022-11-28T09:16:17.236Z,23.10
2022-11-28T09:18:44.154Z,25.30
2022-11-28T09:21:13.966Z,17.70
2022-11-28T09:23:41.996Z,20.90
2022-11-28T09:26:10.179Z,22.90
2022-11-28T09:28:37.369Z,21.40
2022-11-28T09:31:06.060Z,20.00
2022-11-28T09:33:33.648Z,18.80
2022-11-28T09:36:05.608Z,20.90
2022-11-28T09:38:32.689Z,23.00
2022-11-28T09:41:01.708Z,21.70
2022-11-28T09:43:34.057Z,24.70
2022-11-28T09:46:04.928Z,21.10
2022-11-28T09:48:45.440Z,20.60
2022-11-28T09:51:30.826Z,26.70
2022-11-28T09:54:04.916Z,25.70
2022-11-28T09:59:03.261Z,18.10
2022-11-28T10:01:38.477Z,26.00
2022-11-28T10:04:16.559Z,22.10
2022-11-28T10:07:02.122Z,21.70
2022-11-28T10:09:45.696Z,24.60
2022-11-28T10:12:27.413Z,24.40
2022-11-28T10:15:09.086Z,28.30
2022-11-28T10:17:54.316Z,25.00
2022-11-28T10:20:25.702Z,27.30
2022-11-28T10:22:57.961Z,27.30
2022-11-28T10:25:33.932Z,28.00
2022-11-28T10:28:01.906Z,26.30
2022-11-28T10:30:35.120Z,26.70
2022-11-28T10:33:12.353Z,23.70
2022-11-28T10:35:44.639Z,24.70
2022-11-28T10:38:14.478Z,25.70
2022-11-28T10:40:52.392Z,23.40
2022-11-28T10:43:35.782Z,25.70
2022-11-28T10:46:18.935Z,23.70
2022-11-28T10:49:04.130Z,24.40
2022-11-28T10:51:31.926Z,26.20
2022-11-28T10:54:17.350Z,23.80
2022-11-28T10:57:09.218Z,20.60
2022-11-28T10:59:59.113Z,22.80
2022-11-28T11:02:45.402Z,21.20
2022-11-28T11:05:15.929Z,18.70
2022-11-28T11:07:49.448Z,20.30
2022-11-28T11:10:19.694Z,20.50
2022-11-28T11:12:49.983Z,18.70
2022-11-28T11:15:21.610Z,17.50
2022-11-28T11:17:50.882Z,18.60
2022-11-28T11:20:21.038Z,18.50
2022-11-28T11:22:57.112Z,18.70
2022-11-28T11:25:26.105Z,17.00
2022-11-28T11:27:57.340Z,17.20
2022-11-28T11:30:27.074Z,19.70
2022-11-28T11:32:56.635Z,19.00
2022-11-28T11:35:27.701Z,19.60
2022-11-28T11:38:15.495Z,19.00
2022-11-28T11:40:42.500Z,19.60
2022-11-28T11:43:24.740Z,18.40
2022-11-28T11:46:04.715Z,21.90
2022-11-28T11:48:36.839Z,20.80
2022-11-28T11:51:04.063Z,18.80
2022-11-28T11:53:30.862Z,22.10
2022-11-28T11:56:02.470Z,19.00
2022-11-28T11:58:40.791Z,18.70
2022-11-28T12:01:08.718Z,20.10
2022-11-28T12:03:51.159Z,20.60
2022-11-28T12:06:24.413Z,20.90
2022-11-28T12:09:06.919Z,22.70
2022-11-28T12:11:46.508Z,22.40
2022-11-28T12:14:34.307Z,21.70
2022-11-28T12:20:10.482Z,19.00
2022-11-28T12:23:00.850Z,20.60
2022-11-28T12:25:43.183Z,17.80
2022-11-28T12:28:33.832Z,18.00
2022-11-28T12:31:23.356Z,19.60
2022-11-28T12:34:05.438Z,21.20
2022-11-28T12:36:38.528Z,23.30
2022-11-28T12:39:31.918Z,25.90
2022-11-28T12:42:16.068Z,22.30
2022-11-28T12:44:43.995Z,20.80
2022-11-28T12:47:26.115Z,18.40
2022-11-28T12:50:00.237Z,22.90
2022-11-28T12:55:13.830Z,18.90
2022-11-28T12:58:05.455Z,20.40
2022-11-28T13:00:55.095Z,20.30
2022-11-28T13:03:41.724Z,18.10
2022-11-28T13:06:16.940Z,21.10
2022-11-28T13:08:56.824Z,17.50
2022-11-28T13:11:40.254Z,23.00
2022-11-28T13:14:14.852Z,18.90
2022-11-28T13:16:48.260Z,12.70
2022-11-28T13:19:39.572Z,16.60
2022-11-28T13:22:23.524Z,16.00
2022-11-28T13:25:04.125Z,16.10
2022-11-28T13:27:42.099Z,16.30
2022-11-28T13:30:27.069Z,17.70
2022-11-28T13:33:01.235Z,15.10
2022-11-28T13:38:43.243Z,14.70
2022-11-28T13:41:43.037Z,14.40
2022-11-28T13:44:19.471Z,15.70
2022-11-28T13:46:46.656Z,11.60
2022-11-28T13:49:29.698Z,14.60
2022-11-28T13:52:19.081Z,19.10
2022-11-28T13:54:54.533Z,10.60
2022-11-28T13:57:24.294Z,13.60
2022-11-28T13:59:55.006Z,15.90
2022-11-28T14:02:34.555Z,12.90
2022-11-28T14:05:02.399Z,13.40
2022-11-28T14:07:32.125Z,14.20
2022-11-28T14:10:26.104Z,14.00
2022-11-28T14:13:01.915Z,12.00
2022-11-28T14:15:53.377Z,14.80
2022-11-28T14:18:54.977Z,18.70
2022-11-28T14:21:18.969Z,17.60
2022-11-28T14:24:02.416Z,18.70
2022-11-28T14:26:33.829Z,15.80
2022-11-28T14:29:03.073Z,12.80
2022-11-28T14:31:39.943Z,12.70
2022-11-28T14:34:31.113Z,14.10
2022-11-28T14:37:34.848Z,13.30
2022-11-28T14:40:01.951Z,16.30
2022-11-28T14:45:40.394Z,14.70
2022-11-28T14:50:48.701Z,8.20
2022-11-28T14:53:35.159Z,17.90
2022-11-28T14:56:11.616Z,16.10
2022-11-28T14:58:38.809Z,17.00
2022-11-28T15:01:15.471Z,16.90
2022-11-28T15:03:59.242Z,18.20
2022-11-28T15:06:38.018Z,16.40
2022-11-28T15:09:20.635Z,15.80
2022-11-28T15:12:19.914Z,16.00
2022-11-28T15:14:55.980Z,11.50
2022-11-28T15:17:28.943Z,16.10
2022-11-28T15:19:59.024Z,18.10
2022-11-28T15:22:31.891Z,15.70
2022-11-28T15:24:58.984Z,10.20
2022-11-28T15:27:27.838Z,13.80
2022-11-28T15:29:58.427Z,27.40
2022-11-28T15:32:28.280Z,32.60
2022-11-28T15:35:00.991Z,41.80
2022-11-28T15:37:32.576Z,40.40
2022-11-28T15:40:01.710Z,32.50
2022-11-28T15:42:35.101Z,22.10
2022-11-28T15:45:08.552Z,35.90
2022-11-28T15:47:35.545Z,37.10
2022-11-28T15:50:20.325Z,44.00
2022-11-28T15:53:03.541Z,30.40
2022-11-28T15:55:33.066Z,46.70
2022-11-28T15:58:16.115Z,41.20
2022-11-28T16:00:47.399Z,43.90
2022-11-28T16:03:22.606Z,32.60
2022-11-28T16:05:51.971Z,33.80
2022-11-28T16:08:28.631Z,29.70
2022-11-28T16:10:56.826Z,40.90
2022-11-28T16:13:25.040Z,40.80
2022-11-28T16:15:56.159Z,41.50
2022-11-28T16:18:25.821Z,39.90
2022-11-28T16:20:53.146Z,33.30
2022-11-28T16:23:25.837Z,36.30
2022-11-28T16:26:03.248Z,41.50
2022-11-28T16:28:36.138Z,40.30
2022-11-28T16:31:11.116Z,38.30
2022-11-28T16:33:45.440Z,41.40
2022-11-28T16:36:20.044Z,53.60
2022-11-28T16:38:49.002Z,54.80
2022-11-28T16:41:21.126Z,66.70
2022-11-28T16:43:53.366Z,52.00
2022-11-28T16:46:23.339Z,43.90
2022-11-28T16:48:59.323Z,44.40
2022-11-28T16:51:25.994Z,46.70
2022-11-28T16:53:55.628Z,46.60
2022-11-28T16:56:26.895Z,41.50
2022-11-28T16:59:02.863Z,46.10
2022-11-28T17:01:30.617Z,45.00
2022-11-28T17:03:57.913Z,49.10
2022-11-28T17:06:28.833Z,49.80
2022-11-28T17:08:56.745Z,54.40
2022-11-28T17:11:28.068Z,50.90
2022-11-28T17:13:57.669Z,51.60
2022-11-28T17:16:26.629Z,44.00
2022-11-28T17:18:54.065Z,37.40
2022-11-28T17:21:28.783Z,47.20
2022-11-28T17:23:55.707Z,45.60
2022-11-28T17:26:22.482Z,47.40
2022-11-28T17:28:49.113Z,50.20
2022-11-28T17:31:16.011Z,46.30
2022-11-28T17:33:44.782Z,45.40
2022-11-28T17:36:12.440Z,49.10
2022-11-28T17:38:39.113Z,48.40
2022-11-28T17:41:06.372Z,46.80
2022-11-28T17:43:38.724Z,42.90
2022-11-28T17:46:06.075Z,39.80
2022-11-28T17:48:33.076Z,36.60
2022-11-28T17:51:02.035Z,36.60
2022-11-28T17:53:28.857Z,37.40
2022-11-28T17:55:59.518Z,44.60
2022-11-28T17:58:26.882Z,47.60
2022-11-28T18:01:00.269Z,48.60
2022-11-28T18:03:28.427Z,45.80
2022-11-28T18:05:55.476Z,38.70
2022-11-28T18:08:22.593Z,39.30
2022-11-28T18:10:49.579Z,46.20
2022-11-28T18:13:17.664Z,41.70
2022-11-28T18:15:47.025Z,45.60
2022-11-28T18:18:15.725Z,41.00
2022-11-28T18:20:42.711Z,43.80
2022-11-28T18:23:11.057Z,43.60
2022-11-28T18:25:42.963Z,44.30
2022-11-28T18:28:17.238Z,40.40
2022-11-28T18:30:47.431Z,38.10
2022-11-28T18:33:15.745Z,32.30
2022-11-28T18:35:42.789Z,34.30
2022-11-28T18:38:11.976Z,38.50
2022-11-28T18:40:39.069Z,35.20
2022-11-28T18:43:06.169Z,34.00
2022-11-28T18:45:34.410Z,34.20
2022-11-28T18:48:01.539Z,38.40
2022-11-28T18:50:28.716Z,38.50
2022-11-28T18:52:55.541Z,37.90
2022-11-28T18:55:23.539Z,47.30
2022-11-28T18:57:50.262Z,39.90
2022-11-28T19:00:17.811Z,46.20
2022-11-28T19:02:44.624Z,40.40
2022-11-28T19:05:11.298Z,35.50
2022-11-28T19:07:38.040Z,35.40
2022-11-28T19:10:05.797Z,29.20
2022-11-28T19:12:32.515Z,35.70
2022-11-28T19:15:02.347Z,34.60
2022-11-28T19:17:29.820Z,29.60
2022-11-28T19:19:56.436Z,33.50
2022-11-28T19:22:23.190Z,32.10
2022-11-28T19:24:49.885Z,32.90
2022-11-28T19:27:17.148Z,44.70
2022-11-28T19:29:44.386Z,39.30
2022-11-28T19:32:26.880Z,35.50
2022-11-28T19:34:54.208Z,30.20
2022-11-28T19:37:21.069Z,42.20
2022-11-28T19:39:47.810Z,40.60
2022-11-28T19:42:15.349Z,38.60
2022-11-28T19:44:42.316Z,33.80
2022-11-28T19:47:09.063Z,52.50
2022-11-28T19:49:35.769Z,47.10
2022-11-28T19:52:02.787Z,36.30
2022-11-28T19:54:29.622Z,33.70
2022-11-28T19:56:56.499Z,50.20
2022-11-28T19:59:23.396Z,30.40
2022-11-28T20:01:50.288Z,34.10
2022-11-28T20:04:17.221Z,33.20
2022-11-28T20:06:43.921Z,37.10
2022-11-28T20:09:12.798Z,39.20
2022-11-28T20:11:43.299Z,31.10
2022-11-28T20:14:13.373Z,30.10
2022-11-28T20:16:40.889Z,39.20
2022-11-28T20:19:11.653Z,34.00
2022-11-28T20:21:38.800Z,33.90
2022-11-28T20:24:07.554Z,34.80
2022-11-28T20:26:38.588Z,31.00
2022-11-28T20:29:06.067Z,26.60
2022-11-28T20:31:36.757Z,35.80
2022-11-28T20:34:04.236Z,28.80
2022-11-28T20:36:32.134Z,31.50
2022-11-28T20:38:59.727Z,44.90
2022-11-28T20:41:28.223Z,40.30
2022-11-28T20:43:54.956Z,38.60
2022-11-28T20:46:28.197Z,32.40
2022-11-28T20:48:56.503Z,33.00
2022-11-28T20:51:25.412Z,37.40
2022-11-28T20:53:52.967Z,35.30
2022-11-28T20:56:23.141Z,43.90
2022-11-28T20:58:50.571Z,39.30
2022-11-28T21:01:19.104Z,39.60
2022-11-28T21:03:46.505Z,41.80
2022-11-28T21:06:13.658Z,40.30
2022-11-28T21:08:41.117Z,40.90
2022-11-28T21:11:30.562Z,37.30
2022-11-28T21:14:00.766Z,41.90
2022-11-28T21:16:31.378Z,40.70
2022-11-28T21:19:02.247Z,37.80
2022-11-28T21:21:31.418Z,35.70
2022-11-28T21:24:00.802Z,49.30
2022-11-28T21:26:30.416Z,67.40
2022-11-28T21:29:02.302Z,60.10
2022-11-28T21:31:32.945Z,52.80
2022-11-28T21:34:00.439Z,63.30
2022-11-28T21:36:29.238Z,53.50
2022-11-28T21:38:58.124Z,62.90
2022-11-28T21:41:30.314Z,62.60
2022-11-28T21:43:58.821Z,66.10
2022-11-28T21:46:26.957Z,55.10
2022-11-28T21:48:53.788Z,40.80
2022-11-28T21:51:23.196Z,55.30
2022-11-28T21:53:50.070Z,43.30
2022-11-28T21:56:17.391Z,49.50
2022-11-28T21:58:44.315Z,46.40
2022-11-28T22:01:13.248Z,45.50
2022-11-28T22:03:41.646Z,40.80
2022-11-28T22:06:15.808Z,41.00
2022-11-28T22:11:11.277Z,42.60
2022-11-28T22:13:40.506Z,40.80
2022-11-28T22:16:12.321Z,45.00
2022-11-28T22:18:39.290Z,45.90
2022-11-28T22:21:22.586Z,49.30
2022-11-28T22:23:58.021Z,44.40
2022-11-28T22:26:24.687Z,42.50
2022-11-28T22:28:53.859Z,47.60
2022-11-28T22:31:23.201Z,42.10
2022-11-28T22:33:50.957Z,48.30
2022-11-28T22:36:19.849Z,46.70
2022-11-28T22:38:48.642Z,43.90
2022-11-28T22:41:23.306Z,42.40
2022-11-28T22:43:56.016Z,51.10
2022-11-28T22:46:23.139Z,43.50
2022-11-28T22:48:51.973Z,44.20
2022-11-28T22:51:22.875Z,40.00
2022-11-28T22:53:54.616Z,40.30
2022-11-28T22:56:21.438Z,42.00
2022-11-28T22:58:48.808Z,46.40
2022-11-28T23:01:20.258Z,45.00
2022-11-28T23:03:47.725Z,45.70
2022-11-28T23:06:17.458Z,51.90
2022-11-28T23:08:44.681Z,57.00
2022-11-28T23:11:14.752Z,42.50
2022-11-28T23:13:42.381Z,49.80
2022-11-28T23:16:13.693Z,53.50
2022-11-28T23:18:41.573Z,56.10
2022-11-28T23:21:08.900Z,61.30
2022-11-28T23:23:36.829Z,59.40
2022-11-28T23:26:09.837Z,62.40
2022-11-28T23:28:38.413Z,66.00
2022-11-28T23:31:08.516Z,65.40
2022-11-28T23:33:35.309Z,78.10
2022-11-28T23:36:18.314Z,80.60
2022-11-28T23:38:46.164Z,77.20
2022-11-28T23:41:13.407Z,67.90
2022-11-28T23:43:40.443Z,85.70
2022-11-28T23:46:08.799Z,74.80
2022-11-28T23:48:36.396Z,59.30
2022-11-28T23:51:06.331Z,63.10
2022-11-28T23:53:34.249Z,60.80
2022-11-28T23:56:06.981Z,56.60
2022-11-28T23:58:34.311Z,57.20
